»·PEaware :: N1765R KSFO-KSMX

N1765R :: KSFO-KSMX

FLIGHT INFORMATION

Flight Status: Arrived
Operator: Privately registered:
United States
More flights under this callsign
Pilot: Eric S. (19226)
Aircraft: SOCATA TBM-900
(TBM9)
More flights by this aircraft type
Origin: KSFO San Francisco Intl
United States
Destination: KSMX Santa Maria Pub/Capt Hancock
United States
More flights between these airports :: More routes between these airports
Route: +GAPP7 NORMM SEGUL CYPRS MCKEY MQO
File this flight plan on PilotEdge
Remarks:
Altitude:
(Current/Filed)
21,000ft
Speed:
(Current/Filed)
295kts
Departed: 01-Aug-20 07:55 PM
Arrived: 01-Aug-20 08:57 PM
Distance/Time
Traveled:
188nm/1:01
Distance/Time
To Go:
Arrived

Flight Plot

Page will automatically refresh every two minutes.


Map Options




Map Legend


Flown Route
Filed Route
Departure Airport
Arrival Airport
Navaid (VOR, NDB)
Fix

Horizontal Profiles

Position Reports

Time Latitude Longitude Heading Altitude Ground
Speed
01-Aug-20 19:17 37.628143 -122.382796 300 10ft 0kts
01-Aug-20 19:18 37.628143 -122.382796 300 10ft 0kts
01-Aug-20 19:19 37.628143 -122.382796 300 10ft 0kts
01-Aug-20 19:20 37.628143 -122.382796 300 10ft 0kts
01-Aug-20 19:21 37.628143 -122.382796 300 10ft 0kts
01-Aug-20 19:22 37.628143 -122.382796 300 10ft 0kts
01-Aug-20 19:23 37.628143 -122.382796 300 10ft 0kts
01-Aug-20 19:24 37.628143 -122.382796 300 10ft 0kts
01-Aug-20 19:25 37.628143 -122.382796 300 10ft 0kts
01-Aug-20 19:26 37.628143 -122.382796 300 10ft 0kts
01-Aug-20 19:27 37.628143 -122.382796 300 10ft 0kts
01-Aug-20 19:28 37.628143 -122.382796 300 10ft 0kts
01-Aug-20 19:29 37.628143 -122.382796 300 10ft 0kts
01-Aug-20 19:30 37.628143 -122.382796 300 10ft 0kts
01-Aug-20 19:31 37.628143 -122.382796 300 10ft 0kts
01-Aug-20 19:32 37.628143 -122.382796 300 10ft 0kts
01-Aug-20 19:33 37.628143 -122.382796 300 10ft 0kts
01-Aug-20 19:34 37.628143 -122.382796 300 10ft 0kts
01-Aug-20 19:35 37.628143 -122.382796 300 10ft 0kts
01-Aug-20 19:36 37.628143 -122.382796 300 10ft 0kts
01-Aug-20 19:37 37.628143 -122.382796 300 10ft 0kts
01-Aug-20 19:38 37.628143 -122.382796 300 10ft 0kts
01-Aug-20 19:39 37.628143 -122.382796 300 10ft 0kts
01-Aug-20 19:40 37.628143 -122.382796 300 10ft 0kts
01-Aug-20 19:41 37.628143 -122.382796 300 10ft 0kts
01-Aug-20 19:42 37.628143 -122.382796 300 10ft 0kts
01-Aug-20 19:43 37.627006 -122.382977 180 12ft 21kts
01-Aug-20 19:44 37.625153 -122.381303 154 19ft 23kts
01-Aug-20 19:46 37.619663 -122.380327 118 26ft 29kts
01-Aug-20 19:47 37.615478 -122.379470 208 25ft 20kts
01-Aug-20 19:48 37.610145 -122.383023 208 26ft 23kts
01-Aug-20 19:49 37.608864 -122.383420 125 26ft 0kts
01-Aug-20 19:50 37.608864 -122.383420 125 26ft 0kts
01-Aug-20 19:51 37.608864 -122.383420 125 26ft 0kts
01-Aug-20 19:52 37.608864 -122.383420 125 26ft 0kts
01-Aug-20 19:53 37.608864 -122.383420 125 26ft 0kts
01-Aug-20 19:54 37.608814 -122.383324 122 26ft 11kts
01-Aug-20 19:55 37.627201 -122.372523 2 886ft 121kts
01-Aug-20 19:56 37.654507 -122.365341 3 2778ft 127kts
01-Aug-20 19:57 37.685363 -122.358606 1 4690ft 132kts
01-Aug-20 19:58 37.720851 -122.353463 359 6867ft 139kts
01-Aug-20 19:59 37.740522 -122.375297 260 8855ft 133kts
01-Aug-20 20:00 37.734631 -122.431669 263 10814ft 168kts
01-Aug-20 20:00 37.730445 -122.482768 264 12509ft 175kts
01-Aug-20 20:02 37.724709 -122.555934 263 15044ft 180kts
01-Aug-20 20:03 37.707022 -122.610876 187 17014ft 189kts
01-Aug-20 20:03 37.661622 -122.609769 180 18675ft 193kts
01-Aug-20 20:05 37.596592 -122.606403 180 20709ft 199kts
01-Aug-20 20:06 37.534479 -122.603050 179 21022ft 241kts
01-Aug-20 20:06 37.475530 -122.599822 179 21007ft 257kts
01-Aug-20 20:07 37.400764 -122.595750 179 21000ft 264kts
01-Aug-20 20:09 37.313238 -122.590946 180 21106ft 261kts
01-Aug-20 20:09 37.254003 -122.587794 180 21107ft 261kts
01-Aug-20 20:10 37.182827 -122.583954 180 21105ft 259kts
01-Aug-20 20:11 37.112939 -122.580186 180 21106ft 257kts
01-Aug-20 20:12 37.044242 -122.576474 181 21106ft 257kts
01-Aug-20 20:13 36.974538 -122.572734 181 21106ft 260kts
01-Aug-20 20:14 36.904293 -122.556838 172 21105ft 266kts
01-Aug-20 20:15 36.833508 -122.538419 172 21099ft 267kts
01-Aug-20 20:16 36.762225 -122.519916 172 21092ft 267kts
01-Aug-20 20:17 36.690602 -122.501363 172 21084ft 267kts
01-Aug-20 20:18 36.619017 -122.482854 172 21080ft 267kts
01-Aug-20 20:19 36.546490 -122.464136 172 21080ft 267kts
01-Aug-20 20:20 36.473253 -122.445272 172 21080ft 267kts
01-Aug-20 20:21 36.406439 -122.409109 133 21096ft 278kts
01-Aug-20 20:22 36.355153 -122.333879 133 21081ft 279kts
01-Aug-20 20:23 36.304242 -122.259566 133 21081ft 279kts
01-Aug-20 20:24 36.252910 -122.184816 133 21081ft 279kts
01-Aug-20 20:25 36.201839 -122.110607 133 21081ft 279kts
01-Aug-20 20:26 36.151133 -122.037087 133 21081ft 280kts
01-Aug-20 20:27 36.100002 -121.963119 133 21082ft 280kts
01-Aug-20 20:28 36.048157 -121.888278 133 21082ft 280kts
01-Aug-20 20:29 35.996894 -121.814440 133 21082ft 280kts
01-Aug-20 20:30 35.945962 -121.741237 133 21082ft 280kts
01-Aug-20 20:31 35.894890 -121.667998 133 21082ft 280kts
01-Aug-20 20:32 35.843557 -121.594541 133 21056ft 281kts
01-Aug-20 20:33 35.792261 -121.521299 133 21027ft 281kts
01-Aug-20 20:34 35.741336 -121.448761 133 19588ft 287kts
01-Aug-20 20:35 35.688622 -121.373800 132 17626ft 292kts
01-Aug-20 20:36 35.638506 -121.302666 133 15153ft 256kts
01-Aug-20 20:37 35.592439 -121.237494 132 12618ft 258kts
01-Aug-20 20:38 35.545388 -121.170978 132 10112ft 252kts
01-Aug-20 20:39 35.497572 -121.110202 137 7715ft 239kts
01-Aug-20 20:40 35.449254 -121.052895 137 6511ft 247kts
01-Aug-20 20:41 35.401911 -120.990993 128 5323ft 251kts
01-Aug-20 20:42 35.358881 -120.923659 128 4136ft 252kts
01-Aug-20 20:43 35.319886 -120.862512 128 3951ft 210kts
01-Aug-20 20:44 35.282813 -120.804409 128 3966ft 225kts
01-Aug-20 20:45 35.245941 -120.749671 150 3936ft 199kts
01-Aug-20 20:46 35.199403 -120.719697 158 3345ft 190kts
01-Aug-20 20:47 35.149715 -120.695663 168 3265ft 193kts
01-Aug-20 20:48 35.099432 -120.677970 166 3266ft 189kts
01-Aug-20 20:49 35.059428 -120.644434 133 3194ft 156kts
01-Aug-20 20:50 35.030544 -120.610168 136 2226ft 146kts
01-Aug-20 20:51 35.002244 -120.576451 135 1989ft 147kts
01-Aug-20 20:52 34.974304 -120.543247 136 1961ft 144kts
01-Aug-20 20:53 34.948396 -120.512268 134 1485ft 134kts
01-Aug-20 20:54 34.923829 -120.482757 135 851ft 114kts
01-Aug-20 20:55 34.904491 -120.459787 134 264ft 70kts
01-Aug-20 20:56 34.900587 -120.453533 0 264ft 0kts
01-Aug-20 20:57 34.900587 -120.453533 0 264ft 0kts
01-Aug-20 20:58 34.901072 -120.453535 357 264ft 15kts
01-Aug-20 20:59 34.903992 -120.454087 229 264ft 0kts
01-Aug-20 21:00 34.903992 -120.454087 230 264ft 0kts
01-Aug-20 21:01 34.903992 -120.454087 230 264ft 0kts
01-Aug-20 21:02 34.903992 -120.454087 230 264ft 0kts
01-Aug-20 21:03 34.903992 -120.454087 230 264ft 0kts
01-Aug-20 21:04 34.903992 -120.454087 230 264ft 0kts
01-Aug-20 21:05 34.903992 -120.454087 230 264ft 0kts
01-Aug-20 21:06 34.903992 -120.454087 230 264ft 0kts

Navigation Log

Ident Type
Flight plan parsing failed, navigation log unavailable